sensor_id;sensor_type;location;lat;lon;timestamp;P1;durP1;ratioP1;P2;durP2;ratioP2
8825;SDS011;4449;50.872;4.714;2023-04-06T00:01:40;16.70;;;9.83;;
8825;SDS011;4449;50.872;4.714;2023-04-06T00:04:08;18.50;;;10.93;;
8825;SDS011;4449;50.872;4.714;2023-04-06T00:06:36;17.47;;;9.97;;
8825;SDS011;4449;50.872;4.714;2023-04-06T00:09:05;16.43;;;9.33;;
8825;SDS011;4449;50.872;4.714;2023-04-06T00:11:33;14.57;;;9.37;;
8825;SDS011;4449;50.872;4.714;2023-04-06T00:14:01;16.80;;;10.27;;
8825;SDS011;4449;50.872;4.714;2023-04-06T00:16:28;17.93;;;9.73;;
8825;SDS011;4449;50.872;4.714;2023-04-06T00:18:56;14.57;;;9.17;;
8825;SDS011;4449;50.872;4.714;2023-04-06T00:21:24;16.97;;;10.13;;
8825;SDS011;4449;50.872;4.714;2023-04-06T00:23:52;16.67;;;9.10;;
8825;SDS011;4449;50.872;4.714;2023-04-06T00:26:21;16.30;;;9.70;;
8825;SDS011;4449;50.872;4.714;2023-04-06T00:28:49;13.97;;;9.60;;
8825;SDS011;4449;50.872;4.714;2023-04-06T00:31:17;16.57;;;10.03;;
8825;SDS011;4449;50.872;4.714;2023-04-06T00:33:45;13.67;;;9.33;;
8825;SDS011;4449;50.872;4.714;2023-04-06T00:36:13;15.50;;;9.83;;
8825;SDS011;4449;50.872;4.714;2023-04-06T00:38:41;14.70;;;9.20;;
8825;SDS011;4449;50.872;4.714;2023-04-06T00:41:09;17.90;;;9.80;;
8825;SDS011;4449;50.872;4.714;2023-04-06T00:43:38;17.33;;;10.33;;
8825;SDS011;4449;50.872;4.714;2023-04-06T00:46:06;14.23;;;9.57;;
8825;SDS011;4449;50.872;4.714;2023-04-06T00:48:33;17.30;;;11.20;;
8825;SDS011;4449;50.872;4.714;2023-04-06T00:51:01;19.37;;;10.37;;
8825;SDS011;4449;50.872;4.714;2023-04-06T00:53:29;18.10;;;9.80;;
8825;SDS011;4449;50.872;4.714;2023-04-06T00:55:57;16.87;;;10.43;;
8825;SDS011;4449;50.872;4.714;2023-04-06T00:58:25;15.93;;;10.50;;
8825;SDS011;4449;50.872;4.714;2023-04-06T01:00:55;14.43;;;9.60;;
8825;SDS011;4449;50.872;4.714;2023-04-06T01:03:22;18.17;;;10.93;;
8825;SDS011;4449;50.872;4.714;2023-04-06T01:05:51;16.23;;;10.30;;
8825;SDS011;4449;50.872;4.714;2023-04-06T01:08:23;16.83;;;10.67;;
8825;SDS011;4449;50.872;4.714;2023-04-06T01:10:51;18.60;;;10.33;;
8825;SDS011;4449;50.872;4.714;2023-04-06T01:13:19;19.13;;;10.37;;
8825;SDS011;4449;50.872;4.714;2023-04-06T01:15:46;15.80;;;10.30;;
8825;SDS011;4449;50.872;4.714;2023-04-06T01:18:16;16.90;;;9.80;;
8825;SDS011;4449;50.872;4.714;2023-04-06T01:20:43;19.93;;;11.13;;
8825;SDS011;4449;50.872;4.714;2023-04-06T01:23:13;16.47;;;10.63;;
8825;SDS011;4449;50.872;4.714;2023-04-06T01:25:41;19.43;;;10.67;;
8825;SDS011;4449;50.872;4.714;2023-04-06T01:28:09;20.23;;;10.47;;
8825;SDS011;4449;50.872;4.714;2023-04-06T01:30:37;18.17;;;10.80;;
8825;SDS011;4449;50.872;4.714;2023-04-06T01:33:04;15.73;;;9.83;;
8825;SDS011;4449;50.872;4.714;2023-04-06T01:35:32;16.60;;;9.40;;
8825;SDS011;4449;50.872;4.714;2023-04-06T01:38:00;20.10;;;11.00;;
8825;SDS011;4449;50.872;4.714;2023-04-06T01:40:29;20.23;;;9.90;;
8825;SDS011;4449;50.872;4.714;2023-04-06T01:42:57;18.80;;;11.03;;
8825;SDS011;4449;50.872;4.714;2023-04-06T01:45:25;17.80;;;10.20;;
8825;SDS011;4449;50.872;4.714;2023-04-06T01:47:53;17.57;;;9.73;;
8825;SDS011;4449;50.872;4.714;2023-04-06T01:50:20;16.53;;;10.23;;
8825;SDS011;4449;50.872;4.714;2023-04-06T01:52:48;15.93;;;9.27;;
8825;SDS011;4449;50.872;4.714;2023-04-06T01:55:16;15.63;;;9.63;;
8825;SDS011;4449;50.872;4.714;2023-04-06T01:57:45;15.97;;;9.23;;
8825;SDS011;4449;50.872;4.714;2023-04-06T02:00:14;17.70;;;9.87;;
8825;SDS011;4449;50.872;4.714;2023-04-06T02:02:42;16.30;;;10.33;;
8825;SDS011;4449;50.872;4.714;2023-04-06T02:05:09;17.93;;;10.00;;
8825;SDS011;4449;50.872;4.714;2023-04-06T02:07:37;14.10;;;9.37;;
8825;SDS011;4449;50.872;4.714;2023-04-06T02:10:10;13.03;;;8.80;;
8825;SDS011;4449;50.872;4.714;2023-04-06T02:12:38;14.90;;;9.53;;
8825;SDS011;4449;50.872;4.714;2023-04-06T02:15:08;17.33;;;9.30;;
8825;SDS011;4449;50.872;4.714;2023-04-06T02:17:38;17.83;;;10.47;;
8825;SDS011;4449;50.872;4.714;2023-04-06T02:20:06;15.83;;;9.83;;
8825;SDS011;4449;50.872;4.714;2023-04-06T02:22:34;12.37;;;8.97;;
8825;SDS011;4449;50.872;4.714;2023-04-06T02:25:02;15.67;;;10.10;;
8825;SDS011;4449;50.872;4.714;2023-04-06T02:27:30;13.30;;;8.57;;
8825;SDS011;4449;50.872;4.714;2023-04-06T02:29:58;14.40;;;8.00;;
8825;SDS011;4449;50.872;4.714;2023-04-06T02:32:27;13.70;;;9.27;;
8825;SDS011;4449;50.872;4.714;2023-04-06T02:34:55;13.23;;;9.80;;
8825;SDS011;4449;50.872;4.714;2023-04-06T02:37:23;15.60;;;10.17;;
8825;SDS011;4449;50.872;4.714;2023-04-06T02:39:50;12.87;;;9.30;;
8825;SDS011;4449;50.872;4.714;2023-04-06T02:42:18;14.70;;;9.77;;
8825;SDS011;4449;50.872;4.714;2023-04-06T02:44:46;14.03;;;8.90;;
8825;SDS011;4449;50.872;4.714;2023-04-06T02:47:14;13.73;;;8.83;;
8825;SDS011;4449;50.872;4.714;2023-04-06T02:49:43;17.47;;;9.20;;
8825;SDS011;4449;50.872;4.714;2023-04-06T02:52:11;18.07;;;10.27;;
8825;SDS011;4449;50.872;4.714;2023-04-06T02:54:39;12.47;;;8.73;;
8825;SDS011;4449;50.872;4.714;2023-04-06T02:57:07;17.53;;;10.07;;
8825;SDS011;4449;50.872;4.714;2023-04-06T02:59:35;13.27;;;8.97;;
8825;SDS011;4449;50.872;4.714;2023-04-06T03:02:03;17.03;;;9.37;;
8825;SDS011;4449;50.872;4.714;2023-04-06T03:04:31;16.20;;;9.50;;
8825;SDS011;4449;50.872;4.714;2023-04-06T03:07:00;14.90;;;10.03;;
8825;SDS011;4449;50.872;4.714;2023-04-06T03:09:28;14.93;;;8.47;;
8825;SDS011;4449;50.872;4.714;2023-04-06T03:11:55;13.60;;;8.80;;
8825;SDS011;4449;50.872;4.714;2023-04-06T03:14:24;14.63;;;8.93;;
8825;SDS011;4449;50.872;4.714;2023-04-06T03:16:51;16.17;;;9.30;;
8825;SDS011;4449;50.872;4.714;2023-04-06T03:19:19;13.27;;;8.67;;
8825;SDS011;4449;50.872;4.714;2023-04-06T03:21:47;16.83;;;9.70;;
8825;SDS011;4449;50.872;4.714;2023-04-06T03:24:16;12.07;;;8.53;;
8825;SDS011;4449;50.872;4.714;2023-04-06T03:26:44;13.70;;;9.47;;
8825;SDS011;4449;50.872;4.714;2023-04-06T03:29:12;13.90;;;9.27;;
8825;SDS011;4449;50.872;4.714;2023-04-06T03:31:40;14.70;;;9.67;;
8825;SDS011;4449;50.872;4.714;2023-04-06T03:34:08;13.17;;;9.60;;
8825;SDS011;4449;50.872;4.714;2023-04-06T03:36:35;12.47;;;8.87;;
8825;SDS011;4449;50.872;4.714;2023-04-06T03:39:03;14.17;;;9.30;;
8825;SDS011;4449;50.872;4.714;2023-04-06T03:41:32;15.43;;;9.03;;
8825;SDS011;4449;50.872;4.714;2023-04-06T03:44:00;13.90;;;8.87;;
8825;SDS011;4449;50.872;4.714;2023-04-06T03:46:28;16.73;;;10.03;;
8825;SDS011;4449;50.872;4.714;2023-04-06T03:48:56;15.27;;;9.07;;
8825;SDS011;4449;50.872;4.714;2023-04-06T03:51:24;14.50;;;8.97;;
8825;SDS011;4449;50.872;4.714;2023-04-06T03:53:52;16.17;;;9.27;;
8825;SDS011;4449;50.872;4.714;2023-04-06T03:56:20;13.57;;;8.97;;
8825;SDS011;4449;50.872;4.714;2023-04-06T03:58:49;14.23;;;9.27;;
8825;SDS011;4449;50.872;4.714;2023-04-06T04:01:17;12.50;;;8.80;;
8825;SDS011;4449;50.872;4.714;2023-04-06T04:03:45;23.77;;;10.07;;
8825;SDS011;4449;50.872;4.714;2023-04-06T04:06:13;17.37;;;9.70;;
8825;SDS011;4449;50.872;4.714;2023-04-06T04:08:40;20.20;;;10.10;;
8825;SDS011;4449;50.872;4.714;2023-04-06T04:11:08;19.43;;;10.20;;
8825;SDS011;4449;50.872;4.714;2023-04-06T04:13:36;15.77;;;9.40;;
8825;SDS011;4449;50.872;4.714;2023-04-06T04:16:05;14.93;;;10.00;;
8825;SDS011;4449;50.872;4.714;2023-04-06T04:18:33;16.77;;;9.60;;
8825;SDS011;4449;50.872;4.714;2023-04-06T04:21:01;16.37;;;8.83;;
8825;SDS011;4449;50.872;4.714;2023-04-06T04:23:29;14.50;;;9.33;;
8825;SDS011;4449;50.872;4.714;2023-04-06T04:25:57;18.60;;;9.87;;
8825;SDS011;4449;50.872;4.714;2023-04-06T04:28:25;15.67;;;9.57;;
8825;SDS011;4449;50.872;4.714;2023-04-06T04:30:52;16.07;;;9.23;;
8825;SDS011;4449;50.872;4.714;2023-04-06T04:33:22;11.77;;;8.67;;
8825;SDS011;4449;50.872;4.714;2023-04-06T04:35:50;15.23;;;9.00;;
8825;SDS011;4449;50.872;4.714;2023-04-06T04:38:18;17.00;;;9.97;;
8825;SDS011;4449;50.872;4.714;2023-04-06T04:40:46;15.27;;;8.93;;
8825;SDS011;4449;50.872;4.714;2023-04-06T04:43:14;18.13;;;10.63;;
8825;SDS011;4449;50.872;4.714;2023-04-06T04:45:42;19.50;;;9.37;;
8825;SDS011;4449;50.872;4.714;2023-04-06T04:48:09;16.47;;;9.27;;
8825;SDS011;4449;50.872;4.714;2023-04-06T04:50:39;19.33;;;11.23;;
8825;SDS011;4449;50.872;4.714;2023-04-06T04:53:06;20.67;;;9.73;;
8825;SDS011;4449;50.872;4.714;2023-04-06T04:55:34;14.80;;;9.40;;
8825;SDS011;4449;50.872;4.714;2023-04-06T04:58:02;13.70;;;9.33;;
8825;SDS011;4449;50.872;4.714;2023-04-06T05:00:30;15.27;;;10.00;;
8825;SDS011;4449;50.872;4.714;2023-04-06T05:02:58;12.60;;;9.20;;
8825;SDS011;4449;50.872;4.714;2023-04-06T05:05:25;17.23;;;9.80;;
8825;SDS011;4449;50.872;4.714;2023-04-06T05:07:55;13.87;;;9.13;;
8825;SDS011;4449;50.872;4.714;2023-04-06T05:10:22;13.03;;;9.27;;
8825;SDS011;4449;50.872;4.714;2023-04-06T05:12:50;14.13;;;9.53;;
8825;SDS011;4449;50.872;4.714;2023-04-06T05:15:18;17.60;;;10.37;;
8825;SDS011;4449;50.872;4.714;2023-04-06T05:17:46;15.00;;;9.60;;
8825;SDS011;4449;50.872;4.714;2023-04-06T05:20:14;13.67;;;8.93;;
8825;SDS011;4449;50.872;4.714;2023-04-06T05:22:42;17.73;;;9.83;;
8825;SDS011;4449;50.872;4.714;2023-04-06T05:25:11;18.37;;;9.23;;
8825;SDS011;4449;50.872;4.714;2023-04-06T05:27:39;13.30;;;9.63;;
8825;SDS011;4449;50.872;4.714;2023-04-06T05:30:07;16.30;;;10.00;;
8825;SDS011;4449;50.872;4.714;2023-04-06T05:32:35;17.30;;;9.30;;
8825;SDS011;4449;50.872;4.714;2023-04-06T05:35:03;15.97;;;9.60;;
8825;SDS011;4449;50.872;4.714;2023-04-06T05:37:31;18.03;;;8.83;;
8825;SDS011;4449;50.872;4.714;2023-04-06T05:39:58;12.73;;;9.00;;
8825;SDS011;4449;50.872;4.714;2023-04-06T05:42:28;13.87;;;9.30;;
8825;SDS011;4449;50.872;4.714;2023-04-06T05:45:03;14.50;;;8.90;;
8825;SDS011;4449;50.872;4.714;2023-04-06T05:47:31;16.57;;;9.03;;
8825;SDS011;4449;50.872;4.714;2023-04-06T05:49:59;18.07;;;9.17;;
8825;SDS011;4449;50.872;4.714;2023-04-06T05:52:27;15.10;;;9.20;;
8825;SDS011;4449;50.872;4.714;2023-04-06T05:54:54;15.70;;;8.67;;
8825;SDS011;4449;50.872;4.714;2023-04-06T05:57:22;14.70;;;9.00;;
8825;SDS011;4449;50.872;4.714;2023-04-06T05:59:51;18.53;;;10.70;;
8825;SDS011;4449;50.872;4.714;2023-04-06T06:02:20;13.87;;;9.20;;
8825;SDS011;4449;50.872;4.714;2023-04-06T06:04:49;20.50;;;9.50;;
8825;SDS011;4449;50.872;4.714;2023-04-06T06:07:16;15.40;;;9.77;;
8825;SDS011;4449;50.872;4.714;2023-04-06T06:09:44;14.20;;;8.63;;
8825;SDS011;4449;50.872;4.714;2023-04-06T06:12:12;18.87;;;9.17;;
8825;SDS011;4449;50.872;4.714;2023-04-06T06:14:40;15.70;;;9.13;;
8825;SDS011;4449;50.872;4.714;2023-04-06T06:17:09;16.33;;;9.33;;
8825;SDS011;4449;50.872;4.714;2023-04-06T06:19:37;16.23;;;9.70;;
8825;SDS011;4449;50.872;4.714;2023-04-06T06:22:05;17.07;;;9.30;;
8825;SDS011;4449;50.872;4.714;2023-04-06T06:24:33;18.53;;;9.67;;
8825;SDS011;4449;50.872;4.714;2023-04-06T06:27:01;16.83;;;10.30;;
8825;SDS011;4449;50.872;4.714;2023-04-06T06:29:28;14.67;;;8.90;;
8825;SDS011;4449;50.872;4.714;2023-04-06T06:31:56;19.63;;;9.13;;
8825;SDS011;4449;50.872;4.714;2023-04-06T06:34:26;13.87;;;8.63;;
8825;SDS011;4449;50.872;4.714;2023-04-06T06:36:53;13.80;;;8.37;;
8825;SDS011;4449;50.872;4.714;2023-04-06T06:39:22;17.43;;;9.60;;
8825;SDS011;4449;50.872;4.714;2023-04-06T06:41:53;15.17;;;9.23;;
8825;SDS011;4449;50.872;4.714;2023-04-06T06:44:21;14.53;;;9.03;;
8825;SDS011;4449;50.872;4.714;2023-04-06T06:46:48;15.23;;;9.33;;
8825;SDS011;4449;50.872;4.714;2023-04-06T06:49:16;20.00;;;9.37;;
8825;SDS011;4449;50.872;4.714;2023-04-06T06:51:46;16.53;;;9.43;;
8825;SDS011;4449;50.872;4.714;2023-04-06T06:54:13;16.10;;;9.30;;
8825;SDS011;4449;50.872;4.714;2023-04-06T06:56:41;21.07;;;9.83;;
8825;SDS011;4449;50.872;4.714;2023-04-06T06:59:09;14.47;;;8.47;;
8825;SDS011;4449;50.872;4.714;2023-04-06T07:01:37;15.43;;;9.13;;
8825;SDS011;4449;50.872;4.714;2023-04-06T07:04:05;15.63;;;9.33;;
8825;SDS011;4449;50.872;4.714;2023-04-06T07:06:34;14.43;;;9.70;;
8825;SDS011;4449;50.872;4.714;2023-04-06T07:09:03;13.97;;;9.23;;
8825;SDS011;4449;50.872;4.714;2023-04-06T07:11:31;23.87;;;10.37;;
8825;SDS011;4449;50.872;4.714;2023-04-06T07:13:59;16.43;;;10.03;;
8825;SDS011;4449;50.872;4.714;2023-04-06T07:16:27;17.17;;;9.47;;
8825;SDS011;4449;50.872;4.714;2023-04-06T07:18:54;14.60;;;9.60;;
8825;SDS011;4449;50.872;4.714;2023-04-06T07:21:22;17.63;;;9.40;;
8825;SDS011;4449;50.872;4.714;2023-04-06T07:23:50;14.37;;;9.50;;
8825;SDS011;4449;50.872;4.714;2023-04-06T07:26:20;6.47;;;5.27;;
8825;SDS011;4449;50.872;4.714;2023-04-06T07:28:48;15.83;;;9.93;;
8825;SDS011;4449;50.872;4.714;2023-04-06T07:31:15;18.63;;;10.60;;
8825;SDS011;4449;50.872;4.714;2023-04-06T07:33:43;17.87;;;10.93;;
8825;SDS011;4449;50.872;4.714;2023-04-06T07:36:12;20.57;;;9.87;;
8825;SDS011;4449;50.872;4.714;2023-04-06T07:38:40;15.07;;;9.83;;
8825;SDS011;4449;50.872;4.714;2023-04-06T07:41:08;15.10;;;9.67;;
8825;SDS011;4449;50.872;4.714;2023-04-06T07:43:38;16.80;;;9.97;;
8825;SDS011;4449;50.872;4.714;2023-04-06T07:46:06;15.17;;;9.90;;
8825;SDS011;4449;50.872;4.714;2023-04-06T07:48:34;15.20;;;9.17;;
8825;SDS011;4449;50.872;4.714;2023-04-06T07:51:03;16.07;;;10.30;;
8825;SDS011;4449;50.872;4.714;2023-04-06T07:53:31;14.77;;;9.37;;
8825;SDS011;4449;50.872;4.714;2023-04-06T07:55:59;16.33;;;9.93;;
8825;SDS011;4449;50.872;4.714;2023-04-06T07:58:27;19.00;;;9.93;;
8825;SDS011;4449;50.872;4.714;2023-04-06T08:00:56;16.73;;;9.50;;
8825;SDS011;4449;50.872;4.714;2023-04-06T08:03:24;16.13;;;9.60;;
8825;SDS011;4449;50.872;4.714;2023-04-06T08:05:52;14.50;;;10.60;;
8825;SDS011;4449;50.872;4.714;2023-04-06T08:08:20;17.30;;;9.93;;
8825;SDS011;4449;50.872;4.714;2023-04-06T08:10:48;16.60;;;9.53;;
8825;SDS011;4449;50.872;4.714;2023-04-06T08:13:16;18.70;;;10.10;;
8825;SDS011;4449;50.872;4.714;2023-04-06T08:15:44;17.10;;;9.97;;
8825;SDS011;4449;50.872;4.714;2023-04-06T08:18:13;17.57;;;10.50;;
8825;SDS011;4449;50.872;4.714;2023-04-06T08:20:41;14.77;;;9.07;;
8825;SDS011;4449;50.872;4.714;2023-04-06T08:23:09;13.63;;;9.23;;
8825;SDS011;4449;50.872;4.714;2023-04-06T08:25:37;15.63;;;8.93;;
8825;SDS011;4449;50.872;4.714;2023-04-06T08:28:05;15.93;;;9.33;;
8825;SDS011;4449;50.872;4.714;2023-04-06T08:30:34;16.73;;;8.90;;
8825;SDS011;4449;50.872;4.714;2023-04-06T08:33:02;14.57;;;9.43;;
8825;SDS011;4449;50.872;4.714;2023-04-06T08:35:31;12.67;;;9.20;;
8825;SDS011;4449;50.872;4.714;2023-04-06T08:37:59;15.63;;;9.10;;
8825;SDS011;4449;50.872;4.714;2023-04-06T08:40:27;14.77;;;9.37;;
8825;SDS011;4449;50.872;4.714;2023-04-06T08:42:55;12.20;;;9.07;;
8825;SDS011;4449;50.872;4.714;2023-04-06T08:45:23;12.97;;;8.30;;
8825;SDS011;4449;50.872;4.714;2023-04-06T08:47:51;11.63;;;8.13;;
8825;SDS011;4449;50.872;4.714;2023-04-06T08:50:19;12.77;;;8.00;;
8825;SDS011;4449;50.872;4.714;2023-04-06T08:52:49;13.87;;;8.80;;
8825;SDS011;4449;50.872;4.714;2023-04-06T08:55:17;11.47;;;7.83;;
8825;SDS011;4449;50.872;4.714;2023-04-06T08:57:45;13.40;;;8.37;;
8825;SDS011;4449;50.872;4.714;2023-04-06T09:00:14;14.10;;;9.43;;
8825;SDS011;4449;50.872;4.714;2023-04-06T09:02:43;13.37;;;8.67;;
8825;SDS011;4449;50.872;4.714;2023-04-06T09:05:12;13.60;;;8.77;;
8825;SDS011;4449;50.872;4.714;2023-04-06T09:07:40;11.77;;;8.23;;
8825;SDS011;4449;50.872;4.714;2023-04-06T09:10:09;13.43;;;9.30;;
8825;SDS011;4449;50.872;4.714;2023-04-06T09:12:37;16.07;;;8.93;;
8825;SDS011;4449;50.872;4.714;2023-04-06T09:15:05;13.37;;;8.67;;
8825;SDS011;4449;50.872;4.714;2023-04-06T09:17:36;10.10;;;7.07;;
8825;SDS011;4449;50.872;4.714;2023-04-06T09:20:03;16.67;;;9.20;;
8825;SDS011;4449;50.872;4.714;2023-04-06T09:22:35;11.57;;;8.47;;
8825;SDS011;4449;50.872;4.714;2023-04-06T09:25:03;11.03;;;8.93;;
8825;SDS011;4449;50.872;4.714;2023-04-06T09:27:33;11.03;;;8.67;;
8825;SDS011;4449;50.872;4.714;2023-04-06T09:30:05;14.13;;;8.47;;
8825;SDS011;4449;50.872;4.714;2023-04-06T09:32:43;12.27;;;9.33;;
8825;SDS011;4449;50.872;4.714;2023-04-06T09:35:12;14.07;;;8.87;;
8825;SDS011;4449;50.872;4.714;2023-04-06T09:37:40;13.00;;;9.37;;
8825;SDS011;4449;50.872;4.714;2023-04-06T09:40:08;11.67;;;8.70;;
8825;SDS011;4449;50.872;4.714;2023-04-06T10:41:33;11.07;;;7.37;;
8825;SDS011;4449;50.872;4.714;2023-04-06T10:44:01;11.87;;;8.20;;
8825;SDS011;4449;50.872;4.714;2023-04-06T10:46:29;9.97;;;7.73;;
8825;SDS011;4449;50.872;4.714;2023-04-06T10:48:57;12.00;;;8.10;;
8825;SDS011;4449;50.872;4.714;2023-04-06T10:51:26;12.03;;;8.77;;
8825;SDS011;4449;50.872;4.714;2023-04-06T10:53:54;13.87;;;8.07;;
8825;SDS011;4449;50.872;4.714;2023-04-06T10:56:23;11.20;;;8.57;;
8825;SDS011;4449;50.872;4.714;2023-04-06T10:58:55;14.60;;;9.27;;
8825;SDS011;4449;50.872;4.714;2023-04-06T11:01:23;13.90;;;8.93;;
8825;SDS011;4449;50.872;4.714;2023-04-06T11:03:52;10.20;;;7.73;;
8825;SDS011;4449;50.872;4.714;2023-04-06T11:06:21;11.20;;;8.27;;
8825;SDS011;4449;50.872;4.714;2023-04-06T11:08:48;13.43;;;8.50;;
8825;SDS011;4449;50.872;4.714;2023-04-06T11:11:17;12.90;;;8.97;;
8825;SDS011;4449;50.872;4.714;2023-04-06T11:13:46;12.10;;;8.87;;
8825;SDS011;4449;50.872;4.714;2023-04-06T11:16:16;10.87;;;8.23;;
8825;SDS011;4449;50.872;4.714;2023-04-06T11:18:51;14.13;;;8.83;;
8825;SDS011;4449;50.872;4.714;2023-04-06T11:21:20;11.53;;;8.50;;
8825;SDS011;4449;50.872;4.714;2023-04-06T11:23:48;11.60;;;9.03;;
8825;SDS011;4449;50.872;4.714;2023-04-06T11:26:15;10.37;;;7.93;;
8825;SDS011;4449;50.872;4.714;2023-04-06T11:28:43;10.63;;;8.20;;
8825;SDS011;4449;50.872;4.714;2023-04-06T11:31:11;10.80;;;8.17;;
8825;SDS011;4449;50.872;4.714;2023-04-06T11:33:40;14.77;;;8.87;;
8825;SDS011;4449;50.872;4.714;2023-04-06T11:36:08;13.60;;;8.93;;
8825;SDS011;4449;50.872;4.714;2023-04-06T11:38:38;13.33;;;8.73;;
8825;SDS011;4449;50.872;4.714;2023-04-06T11:41:06;12.70;;;8.50;;
8825;SDS011;4449;50.872;4.714;2023-04-06T11:43:34;12.60;;;9.00;;
8825;SDS011;4449;50.872;4.714;2023-04-06T11:46:02;12.90;;;8.70;;
8825;SDS011;4449;50.872;4.714;2023-04-06T11:48:32;10.20;;;7.40;;
8825;SDS011;4449;50.872;4.714;2023-04-06T11:51:01;9.43;;;8.03;;
8825;SDS011;4449;50.872;4.714;2023-04-06T11:53:30;11.50;;;8.77;;
8825;SDS011;4449;50.872;4.714;2023-04-06T11:55:58;11.20;;;8.70;;
8825;SDS011;4449;50.872;4.714;2023-04-06T11:58:26;10.03;;;7.83;;
8825;SDS011;4449;50.872;4.714;2023-04-06T12:01:02;10.13;;;8.10;;
8825;SDS011;4449;50.872;4.714;2023-04-06T12:03:30;11.03;;;8.47;;
8825;SDS011;4449;50.872;4.714;2023-04-06T12:05:57;13.80;;;8.57;;
8825;SDS011;4449;50.872;4.714;2023-04-06T12:08:27;9.33;;;7.60;;
8825;SDS011;4449;50.872;4.714;2023-04-06T12:10:55;10.13;;;7.77;;
8825;SDS011;4449;50.872;4.714;2023-04-06T12:13:23;10.53;;;8.73;;
8825;SDS011;4449;50.872;4.714;2023-04-06T12:15:50;14.30;;;8.27;;
8825;SDS011;4449;50.872;4.714;2023-04-06T12:18:18;11.40;;;8.13;;
8825;SDS011;4449;50.872;4.714;2023-04-06T12:20:46;9.40;;;8.00;;
8825;SDS011;4449;50.872;4.714;2023-04-06T12:23:14;12.60;;;8.07;;
8825;SDS011;4449;50.872;4.714;2023-04-06T12:25:43;11.43;;;8.10;;
8825;SDS011;4449;50.872;4.714;2023-04-06T12:28:11;12.23;;;8.47;;
8825;SDS011;4449;50.872;4.714;2023-04-06T12:30:39;9.23;;;7.87;;
8825;SDS011;4449;50.872;4.714;2023-04-06T12:33:07;12.77;;;8.30;;
8825;SDS011;4449;50.872;4.714;2023-04-06T12:35:35;11.83;;;8.30;;
8825;SDS011;4449;50.872;4.714;2023-04-06T12:38:04;10.13;;;8.53;;
8825;SDS011;4449;50.872;4.714;2023-04-06T12:40:36;10.50;;;8.10;;
8825;SDS011;4449;50.872;4.714;2023-04-06T12:43:05;11.97;;;7.93;;
8825;SDS011;4449;50.872;4.714;2023-04-06T12:45:34;11.93;;;8.83;;
8825;SDS011;4449;50.872;4.714;2023-04-06T12:48:02;10.80;;;7.47;;
8825;SDS011;4449;50.872;4.714;2023-04-06T12:50:30;12.67;;;7.73;;
8825;SDS011;4449;50.872;4.714;2023-04-06T12:52:57;8.53;;;7.27;;
8825;SDS011;4449;50.872;4.714;2023-04-06T12:55:25;11.23;;;8.13;;
8825;SDS011;4449;50.872;4.714;2023-04-06T12:57:53;11.57;;;7.77;;
8825;SDS011;4449;50.872;4.714;2023-04-06T13:00:23;10.30;;;7.60;;
8825;SDS011;4449;50.872;4.714;2023-04-06T13:02:51;10.83;;;8.27;;
8825;SDS011;4449;50.872;4.714;2023-04-06T13:05:18;12.20;;;8.27;;
8825;SDS011;4449;50.872;4.714;2023-04-06T13:07:46;10.47;;;8.27;;
8825;SDS011;4449;50.872;4.714;2023-04-06T13:10:14;11.50;;;8.17;;
8825;SDS011;4449;50.872;4.714;2023-04-06T13:12:42;12.77;;;8.37;;
8825;SDS011;4449;50.872;4.714;2023-04-06T13:15:10;10.30;;;8.83;;
8825;SDS011;4449;50.872;4.714;2023-04-06T13:17:39;12.50;;;8.57;;
8825;SDS011;4449;50.872;4.714;2023-04-06T13:20:07;12.70;;;8.50;;
8825;SDS011;4449;50.872;4.714;2023-04-06T13:22:35;9.47;;;8.50;;
8825;SDS011;4449;50.872;4.714;2023-04-06T13:25:03;10.87;;;9.07;;
8825;SDS011;4449;50.872;4.714;2023-04-06T13:27:31;11.43;;;8.60;;
8825;SDS011;4449;50.872;4.714;2023-04-06T13:30:01;12.93;;;8.93;;
8825;SDS011;4449;50.872;4.714;2023-04-06T13:32:28;10.50;;;8.53;;
8825;SDS011;4449;50.872;4.714;2023-04-06T13:34:58;14.97;;;9.60;;
8825;SDS011;4449;50.872;4.714;2023-04-06T13:37:26;11.60;;;9.23;;
8825;SDS011;4449;50.872;4.714;2023-04-06T13:39:54;11.20;;;9.00;;
8825;SDS011;4449;50.872;4.714;2023-04-06T13:42:22;10.30;;;9.17;;
8825;SDS011;4449;50.872;4.714;2023-04-06T13:44:50;12.63;;;9.47;;
8825;SDS011;4449;50.872;4.714;2023-04-06T13:47:18;13.33;;;10.30;;
8825;SDS011;4449;50.872;4.714;2023-04-06T13:49:46;14.47;;;10.43;;
8825;SDS011;4449;50.872;4.714;2023-04-06T13:52:15;14.27;;;9.80;;
8825;SDS011;4449;50.872;4.714;2023-04-06T13:54:43;15.73;;;10.33;;
8825;SDS011;4449;50.872;4.714;2023-04-06T13:57:11;13.77;;;9.97;;
8825;SDS011;4449;50.872;4.714;2023-04-06T13:59:39;13.90;;;10.47;;
8825;SDS011;4449;50.872;4.714;2023-04-06T14:02:08;12.87;;;10.77;;
8825;SDS011;4449;50.872;4.714;2023-04-06T14:04:36;14.23;;;10.30;;
8825;SDS011;4449;50.872;4.714;2023-04-06T14:07:04;13.83;;;11.03;;
8825;SDS011;4449;50.872;4.714;2023-04-06T14:09:34;12.53;;;10.00;;
8825;SDS011;4449;50.872;4.714;2023-04-06T14:12:02;12.07;;;10.03;;
8825;SDS011;4449;50.872;4.714;2023-04-06T14:14:29;13.93;;;10.70;;
8825;SDS011;4449;50.872;4.714;2023-04-06T14:16:57;16.47;;;10.70;;
8825;SDS011;4449;50.872;4.714;2023-04-06T14:19:25;14.07;;;10.00;;
8825;SDS011;4449;50.872;4.714;2023-04-06T14:21:53;13.43;;;10.20;;
8825;SDS011;4449;50.872;4.714;2023-04-06T14:24:21;13.07;;;10.07;;
8825;SDS011;4449;50.872;4.714;2023-04-06T14:26:50;14.00;;;10.13;;
8825;SDS011;4449;50.872;4.714;2023-04-06T14:29:18;13.50;;;9.00;;
8825;SDS011;4449;50.872;4.714;2023-04-06T14:31:46;14.57;;;10.13;;
8825;SDS011;4449;50.872;4.714;2023-04-06T14:34:14;14.63;;;10.10;;
8825;SDS011;4449;50.872;4.714;2023-04-06T14:36:42;13.13;;;9.50;;
8825;SDS011;4449;50.872;4.714;2023-04-06T14:39:10;14.13;;;10.53;;
8825;SDS011;4449;50.872;4.714;2023-04-06T14:41:38;16.20;;;10.80;;
8825;SDS011;4449;50.872;4.714;2023-04-06T14:44:07;11.57;;;9.57;;
8825;SDS011;4449;50.872;4.714;2023-04-06T14:46:37;14.13;;;10.40;;
8825;SDS011;4449;50.872;4.714;2023-04-06T14:49:06;13.30;;;10.17;;
8825;SDS011;4449;50.872;4.714;2023-04-06T14:51:34;15.67;;;10.10;;
8825;SDS011;4449;50.872;4.714;2023-04-06T14:54:02;12.73;;;9.33;;
8825;SDS011;4449;50.872;4.714;2023-04-06T14:56:30;13.90;;;10.33;;
8825;SDS011;4449;50.872;4.714;2023-04-06T14:58:58;12.40;;;9.50;;
8825;SDS011;4449;50.872;4.714;2023-04-06T15:01:33;15.03;;;10.40;;
8825;SDS011;4449;50.872;4.714;2023-04-06T15:04:02;12.87;;;10.37;;
8825;SDS011;4449;50.872;4.714;2023-04-06T15:06:29;13.30;;;10.77;;
8825;SDS011;4449;50.872;4.714;2023-04-06T15:08:57;15.73;;;11.50;;
8825;SDS011;4449;50.872;4.714;2023-04-06T15:11:25;14.33;;;10.83;;
8825;SDS011;4449;50.872;4.714;2023-04-06T15:13:53;14.60;;;10.87;;
8825;SDS011;4449;50.872;4.714;2023-04-06T15:16:21;15.47;;;11.07;;
8825;SDS011;4449;50.872;4.714;2023-04-06T15:18:50;13.83;;;10.90;;
8825;SDS011;4449;50.872;4.714;2023-04-06T15:21:18;17.23;;;11.67;;
8825;SDS011;4449;50.872;4.714;2023-04-06T15:23:45;11.73;;;10.17;;
8825;SDS011;4449;50.872;4.714;2023-04-06T15:26:13;14.03;;;11.27;;
8825;SDS011;4449;50.872;4.714;2023-04-06T15:28:41;15.37;;;11.53;;
8825;SDS011;4449;50.872;4.714;2023-04-06T15:31:15;16.60;;;11.43;;
8825;SDS011;4449;50.872;4.714;2023-04-06T15:33:43;17.23;;;11.67;;
8825;SDS011;4449;50.872;4.714;2023-04-06T15:36:16;15.80;;;11.70;;
8825;SDS011;4449;50.872;4.714;2023-04-06T15:38:49;15.90;;;11.20;;
8825;SDS011;4449;50.872;4.714;2023-04-06T15:41:17;16.43;;;12.00;;
8825;SDS011;4449;50.872;4.714;2023-04-06T15:43:45;16.70;;;12.03;;
8825;SDS011;4449;50.872;4.714;2023-04-06T15:46:13;16.47;;;11.77;;
8825;SDS011;4449;50.872;4.714;2023-04-06T15:48:41;16.63;;;12.10;;
8825;SDS011;4449;50.872;4.714;2023-04-06T15:51:09;17.70;;;12.03;;
8825;SDS011;4449;50.872;4.714;2023-04-06T15:53:38;12.93;;;11.00;;
8825;SDS011;4449;50.872;4.714;2023-04-06T15:56:06;17.83;;;11.83;;
8825;SDS011;4449;50.872;4.714;2023-04-06T15:58:34;15.57;;;12.10;;
8825;SDS011;4449;50.872;4.714;2023-04-06T16:01:09;16.87;;;11.73;;
8825;SDS011;4449;50.872;4.714;2023-04-06T16:03:37;15.07;;;11.73;;